Time;durP1;ratioP1;P1;durP2;ratioP2;P2;SDS_P1;SDS_P2;PMS_P1;PMS_P2;Temp;Humidity;BMP_temperature;BMP_pressure;BME280_temperature;BME280_humidity;BME280_pressure;Samples;Min_cycle;Max_cycle;Signal;HPM_P1;HPM_P2
2023/07/19 06:45:29;;;;;;;10.25;4.03;;;22.80;99.90;;;;;;5472553;23;20056;-76
2023/07/19 06:47:55;;;;;;;6.30;3.40;;;22.90;99.90;;;;;;4911714;29;20044;-77
2023/07/19 06:50:23;;;;;;;7.35;3.85;;;22.90;99.90;;;;;;4904385;29;20070;-75
2023/07/19 06:52:50;;;;;;;6.70;3.67;;;23.00;99.90;;;;;;4901905;29;20112;-75
2023/07/19 06:55:17;;;;;;;5.88;3.90;;;23.00;99.90;;;;;;4899512;29;20053;-75
2023/07/19 06:57:43;;;;;;;6.65;3.90;;;23.10;99.90;;;;;;4917973;29;20052;-76
2023/07/19 07:00:11;;;;;;;4.90;3.50;;;23.10;99.90;;;;;;4905559;29;20501;-76
2023/07/19 07:02:38;;;;;;;6.43;4.25;;;23.20;99.90;;;;;;4907803;29;20052;-76
2023/07/19 07:05:05;;;;;;;5.53;3.40;;;23.20;99.90;;;;;;4910941;29;20062;-76
2023/07/19 07:07:32;;;;;;;9.77;4.07;;;23.30;99.90;;;;;;4911642;29;20476;-75
2023/07/19 07:10:03;;;;;;;5.82;3.67;;;23.30;99.90;;;;;;4902529;29;20128;-77
2023/07/19 07:12:32;;;;;;;6.28;4.00;;;23.30;99.90;;;;;;4913437;29;20055;-77
2023/07/19 07:14:59;;;;;;;8.50;4.15;;;23.40;99.90;;;;;;4908151;29;20055;-77
2023/07/19 07:17:26;;;;;;;6.32;4.03;;;23.40;99.90;;;;;;4909876;29;20083;-77
2023/07/19 07:19:53;;;;;;;5.78;3.80;;;23.50;99.90;;;;;;4905140;29;20104;-77
2023/07/19 07:22:22;;;;;;;7.82;3.60;;;23.50;99.90;;;;;;4908619;29;20048;-77
2023/07/19 07:24:49;;;;;;;11.48;3.80;;;23.50;99.90;;;;;;4907720;29;20419;-77
2023/07/19 07:27:16;;;;;;;8.68;4.15;;;23.60;99.90;;;;;;4906943;29;20044;-77
2023/07/19 07:29:43;;;;;;;7.13;4.20;;;23.60;99.90;;;;;;4912905;29;20111;-77
2023/07/19 07:32:13;;;;;;;7.13;3.30;;;23.60;99.90;;;;;;4916803;29;20057;-77
2023/07/19 07:34:39;;;;;;;5.63;3.75;;;23.70;99.90;;;;;;4902900;29;20052;-77
2023/07/19 07:37:06;;;;;;;6.43;4.03;;;23.70;99.90;;;;;;4908353;29;20056;-77
2023/07/19 07:39:35;;;;;;;8.43;4.13;;;23.80;99.90;;;;;;4904183;29;20109;-77
2023/07/19 07:42:02;;;;;;;7.63;4.10;;;23.90;99.90;;;;;;4904318;29;20056;-77
2023/07/19 07:44:29;;;;;;;8.05;4.35;;;23.90;99.90;;;;;;4923804;29;20052;-77
2023/07/19 07:46:56;;;;;;;5.90;3.78;;;24.00;99.90;;;;;;4911103;29;20519;-77
2023/07/19 07:49:23;;;;;;;7.88;4.05;;;24.10;99.90;;;;;;4912410;29;20135;-77
2023/07/19 07:51:50;;;;;;;7.30;4.15;;;24.20;99.90;;;;;;4909332;29;20059;-77
2023/07/19 07:54:17;;;;;;;9.98;3.67;;;24.30;99.90;;;;;;4914433;29;20063;-76
2023/07/19 07:56:44;;;;;;;5.20;3.63;;;24.40;99.90;;;;;;4919822;29;20048;-76
2023/07/19 07:59:11;;;;;;;8.02;4.25;;;24.50;99.90;;;;;;4910295;29;20455;-76
2023/07/19 08:01:38;;;;;;;7.05;3.85;;;24.70;99.90;;;;;;4912976;29;20084;-76
2023/07/19 08:04:06;;;;;;;6.53;4.13;;;24.80;99.90;;;;;;4911309;29;20048;-76
2023/07/19 08:06:33;;;;;;;5.90;4.05;;;24.90;99.90;;;;;;4921837;29;20048;-77
2023/07/19 08:09:00;;;;;;;9.93;3.88;;;25.00;99.90;;;;;;4907973;29;20120;-77
2023/07/19 08:11:26;;;;;;;7.75;3.95;;;25.10;99.90;;;;;;4904944;29;20076;-77
2023/07/19 08:13:53;;;;;;;5.45;3.72;;;25.20;99.90;;;;;;4911261;29;20393;-77
2023/07/19 08:16:20;;;;;;;10.52;3.97;;;25.20;99.90;;;;;;4905546;29;20048;-77
2023/07/19 08:18:47;;;;;;;5.85;3.72;;;25.20;99.90;;;;;;4907635;29;20134;-77
2023/07/19 08:21:14;;;;;;;10.65;4.10;;;25.30;99.90;;;;;;4910014;29;20472;-77
2023/07/19 08:23:55;;;;;;;6.95;3.53;;;25.30;99.90;;;;;;4905171;29;20264;-77
2023/07/19 08:26:23;;;;;;;5.03;3.58;;;25.40;99.90;;;;;;4910666;29;20051;-77
2023/07/19 08:28:50;;;;;;;5.30;3.60;;;25.50;99.90;;;;;;4909226;29;20503;-78
2023/07/19 08:31:18;;;;;;;6.10;3.63;;;25.50;99.90;;;;;;4906778;29;20049;-77
2023/07/19 08:33:45;;;;;;;7.03;3.78;;;25.50;99.90;;;;;;4908917;29;20139;-77
2023/07/19 08:36:12;;;;;;;6.28;3.83;;;25.50;99.90;;;;;;4903751;29;20117;-77
2023/07/19 08:38:39;;;;;;;8.38;3.80;;;25.50;99.90;;;;;;4922932;29;20061;-76
2023/07/19 08:41:06;;;;;;;9.57;3.60;;;25.50;99.90;;;;;;4897483;29;20045;-77
2023/07/19 08:43:36;;;;;;;9.35;3.28;;;25.50;99.90;;;;;;4911322;29;20044;-76
2023/07/19 08:46:03;;;;;;;5.90;3.08;;;25.50;99.90;;;;;;4916864;29;20044;-77
2023/07/19 08:48:34;;;;;;;6.72;3.38;;;25.50;99.90;;;;;;4911719;29;20076;-76
2023/07/19 08:51:01;;;;;;;7.07;3.10;;;25.50;99.90;;;;;;4910848;23;20076;-78
2023/07/19 08:53:28;;;;;;;8.27;2.60;;;25.50;99.90;;;;;;4890041;29;20116;-76
2023/07/19 08:55:56;;;;;;;9.75;3.47;;;25.60;99.90;;;;;;4884817;29;20041;-78
2023/07/19 08:58:23;;;;;;;8.52;2.90;;;25.50;99.90;;;;;;4896948;29;20076;-78
2023/07/19 09:00:50;;;;;;;4.35;2.78;;;25.50;99.90;;;;;;4896320;29;20056;-78
2023/07/19 09:03:17;;;;;;;7.80;3.10;;;25.60;99.90;;;;;;4901036;29;20081;-78
2023/07/19 09:05:46;;;;;;;8.13;3.03;;;25.60;99.90;;;;;;4899576;29;20056;-80
2023/07/19 09:08:14;;;;;;;7.22;3.28;;;25.60;99.90;;;;;;4898558;29;20053;-77
2023/07/19 09:10:45;;;;;;;6.18;2.72;;;25.60;99.90;;;;;;4898947;29;20079;-78
2023/07/19 09:13:19;;;;;;;6.00;3.30;;;25.60;99.90;;;;;;4900773;29;20044;-79
2023/07/19 09:15:47;;;;;;;7.68;2.70;;;25.60;99.90;;;;;;4900211;29;20052;-79
2023/07/19 09:18:14;;;;;;;9.23;3.03;;;25.60;99.90;;;;;;4914026;29;20076;-79
2023/07/19 09:20:42;;;;;;;3.72;2.60;;;25.60;99.90;;;;;;4899288;29;20555;-78
2023/07/19 09:23:09;;;;;;;8.00;2.67;;;25.60;99.90;;;;;;4900367;29;20642;-78
2023/07/19 09:25:52;;;;;;;7.10;3.28;;;25.60;99.90;;;;;;4900608;29;20084;-79
2023/07/19 09:28:23;;;;;;;8.35;2.92;;;25.70;99.90;;;;;;4901037;29;20048;-78
2023/07/19 09:31:03;;;;;;;7.40;3.28;;;25.70;99.90;;;;;;4900271;29;20056;-78
2023/07/19 09:33:33;;;;;;;9.02;3.10;;;25.70;99.90;;;;;;4900162;29;20060;-77
2023/07/19 09:36:00;;;;;;;4.65;3.22;;;25.70;99.90;;;;;;4896821;29;20088;-79
2023/07/19 09:38:26;;;;;;;8.50;2.83;;;25.70;99.90;;;;;;4897256;29;20052;-78
2023/07/19 09:40:54;;;;;;;9.10;2.70;;;25.70;99.90;;;;;;4907066;29;20051;-79
2023/07/19 09:43:22;;;;;;;7.50;2.90;;;25.70;99.90;;;;;;4910083;29;20496;-79
2023/07/19 09:45:50;;;;;;;7.80;2.75;;;25.70;99.90;;;;;;4898024;29;20049;-79
2023/07/19 09:48:18;;;;;;;5.35;2.75;;;25.80;99.90;;;;;;4897937;29;20049;-78
2023/07/19 09:50:52;;;;;;;3.88;2.63;;;25.80;99.90;;;;;;4902410;29;20056;-79
2023/07/19 09:53:23;;;;;;;5.32;2.28;;;25.80;99.90;;;;;;4913437;29;20060;-79
2023/07/19 09:55:53;;;;;;;4.80;2.90;;;25.90;99.90;;;;;;4889415;29;20061;-79
2023/07/19 09:58:22;;;;;;;4.45;2.78;;;25.90;99.90;;;;;;4898467;29;20052;-80
2023/07/19 10:00:49;;;;;;;7.10;2.78;;;25.90;99.90;;;;;;4910645;29;20477;-79
2023/07/19 10:03:20;;;;;;;6.57;3.08;;;25.90;99.90;;;;;;4898263;29;20055;-79
2023/07/19 10:05:58;;;;;;;9.20;3.30;;;26.10;99.90;;;;;;4912251;29;20052;-79
2023/07/19 10:08:25;;;;;;;8.52;3.00;;;26.10;99.90;;;;;;4899209;29;20059;-79
2023/07/19 10:10:58;;;;;;;6.90;2.85;;;26.20;99.90;;;;;;4898756;29;20044;-79
2023/07/19 10:13:50;;;;;;;7.57;2.72;;;26.20;99.90;;;;;;4899152;29;20048;-80
2023/07/19 10:16:36;;;;;;;6.40;3.35;;;26.20;99.90;;;;;;4897010;29;20048;-79
2023/07/19 10:19:14;;;;;;;5.85;2.65;;;26.30;99.90;;;;;;4898876;29;20167;-80
2023/07/19 10:22:01;;;;;;;6.32;2.58;;;26.30;99.90;;;;;;4896160;29;20044;-80
2023/07/19 10:24:28;;;;;;;5.38;2.30;;;26.50;99.90;;;;;;4894664;29;20048;-78
2023/07/19 10:26:55;;;;;;;6.00;2.47;;;26.60;99.90;;;;;;4896582;29;20508;-80
2023/07/19 10:29:25;;;;;;;4.95;2.75;;;26.70;99.90;;;;;;4911546;29;20105;-80
2023/07/19 10:31:52;;;;;;;7.82;2.85;;;26.80;99.90;;;;;;4897352;29;20107;-80
2023/07/19 10:34:29;;;;;;;3.45;2.67;;;26.80;99.90;;;;;;4892972;29;20048;-79
2023/07/19 10:37:10;;;;;;;8.75;3.30;;;26.90;99.90;;;;;;4894817;29;20049;-80
2023/07/19 10:39:37;;;;;;;5.82;2.97;;;27.00;99.90;;;;;;4894406;29;20409;-78
2023/07/19 10:42:04;;;;;;;7.65;2.78;;;27.00;99.90;;;;;;4897555;29;20100;-80
2023/07/19 10:44:31;;;;;;;5.53;2.58;;;27.10;99.90;;;;;;4898702;29;20051;-79
2023/07/19 10:46:58;;;;;;;7.75;2.63;;;27.10;99.90;;;;;;4898268;29;20116;-79
2023/07/19 10:49:27;;;;;;;6.35;2.97;;;27.10;99.90;;;;;;4899606;29;20096;-79
2023/07/19 10:51:55;;;;;;;6.68;3.03;;;27.20;99.90;;;;;;4912280;29;20067;-80
2023/07/19 10:54:23;;;;;;;6.30;3.03;;;27.20;99.90;;;;;;4913578;29;20049;-82
2023/07/19 10:56:52;;;;;;;5.65;2.80;;;27.20;99.90;;;;;;4897710;29;20135;-81
2023/07/19 10:59:19;;;;;;;4.93;2.72;;;27.20;99.90;;;;;;4893523;29;20048;-81
2023/07/19 11:01:48;;;;;;;7.28;2.90;;;27.20;99.90;;;;;;4899494;29;20059;-80
2023/07/19 11:04:18;;;;;;;3.85;2.60;;;27.20;99.90;;;;;;4900460;29;20044;-80
2023/07/19 11:06:55;;;;;;;;;;;27.20;99.90;;;;;;4902184;29;20052;-81
2023/07/19 11:09:22;;;;;;;4.05;2.72;;;27.20;99.90;;;;;;4899451;29;19948;-79
2023/07/19 11:11:50;;;;;;;4.40;2.30;;;27.10;99.90;;;;;;4899794;29;20120;-80
2023/07/19 11:14:30;;;;;;;4.47;2.65;;;27.10;99.90;;;;;;4900985;29;20048;-80
2023/07/19 11:16:58;;;;;;;6.30;3.03;;;27.10;99.90;;;;;;4901169;29;20051;-80
2023/07/19 11:19:39;;;;;;;5.07;2.70;;;27.10;99.90;;;;;;4914901;29;20049;-80
2023/07/19 11:22:07;;;;;;;4.97;2.88;;;27.10;99.90;;;;;;4902000;29;20504;-80
2023/07/19 11:24:35;;;;;;;6.72;3.10;;;27.10;99.90;;;;;;4903020;29;20516;-79
2023/07/19 11:27:02;;;;;;;6.70;2.72;;;27.10;99.90;;;;;;4894236;29;20100;-79
2023/07/19 11:29:31;;;;;;;6.80;3.08;;;27.20;99.90;;;;;;4896852;29;20052;-78
2023/07/19 11:32:21;;;;;;;6.60;2.80;;;27.10;99.90;;;;;;4896361;29;20048;-79
2023/07/19 11:34:53;;;;;;;6.13;2.90;;;27.10;99.90;;;;;;4894661;29;20060;-79
2023/07/19 11:37:21;;;;;;;6.30;2.53;;;27.20;99.90;;;;;;4896976;29;20773;-79
2023/07/19 11:39:49;;;;;;;3.80;2.60;;;27.10;99.90;;;;;;4895534;29;20084;-79
2023/07/19 11:42:52;;;;;;;5.78;2.47;;;27.20;99.90;;;;;;4911011;29;20504;-79
2023/07/19 11:45:25;;;;;;;6.97;2.55;;;27.20;99.90;;;;;;4894012;29;20052;-79
2023/07/19 11:47:55;;;;;;;3.80;2.55;;;27.20;99.90;;;;;;4896417;29;20076;-79
2023/07/19 11:50:23;;;;;;;5.97;2.80;;;27.30;99.90;;;;;;4896416;29;20053;-79
2023/07/19 11:52:57;;;;;;;5.82;2.53;;;27.30;99.90;;;;;;4913398;29;20127;-79
2023/07/19 11:55:24;;;;;;;7.50;2.42;;;27.20;99.90;;;;;;4900174;29;20051;-79
2023/07/19 11:57:53;;;;;;;6.40;2.42;;;27.20;99.90;;;;;;4895745;29;20125;-78
2023/07/19 12:00:22;;;;;;;6.65;2.40;;;27.20;99.90;;;;;;4900599;29;20048;-78
2023/07/19 12:02:50;;;;;;;3.60;2.00;;;27.30;99.90;;;;;;4900258;29;20044;-78
2023/07/19 12:05:22;;;;;;;4.28;2.22;;;27.20;99.90;;;;;;4900357;29;20044;-77
2023/07/19 12:07:51;;;;;;;4.07;2.17;;;27.30;99.90;;;;;;4915413;29;20064;-79
2023/07/19 12:10:20;;;;;;;8.80;2.30;;;27.30;99.90;;;;;;4916802;29;20044;-79
2023/07/19 12:12:50;;;;;;;3.58;2.25;;;27.30;99.90;;;;;;4901084;29;20060;-80
2023/07/19 12:15:18;;;;;;;5.47;2.45;;;27.30;99.90;;;;;;4898260;29;20049;-79
2023/07/19 12:17:46;;;;;;;5.38;2.58;;;27.40;99.90;;;;;;4900006;29;20048;-79
2023/07/19 12:20:13;;;;;;;4.72;2.45;;;27.50;99.90;;;;;;4897517;29;20139;-79
2023/07/19 12:22:42;;;;;;;7.95;3.08;;;27.60;99.90;;;;;;4900264;29;20056;-79
2023/07/19 12:25:10;;;;;;;7.27;2.20;;;27.60;99.90;;;;;;4900145;29;20048;-78
2023/07/19 12:27:37;;;;;;;4.72;2.67;;;27.70;99.90;;;;;;4900427;29;20080;-79
2023/07/19 12:30:05;;;;;;;5.03;2.30;;;27.80;99.90;;;;;;4900760;29;20049;-79
2023/07/19 12:32:32;;;;;;;5.30;2.42;;;27.80;99.90;;;;;;4899852;29;20045;-79
2023/07/19 12:35:01;;;;;;;5.38;2.60;;;27.80;99.90;;;;;;4902142;29;20056;-79
2023/07/19 12:37:28;;;;;;;3.88;2.65;;;27.70;99.90;;;;;;4900512;29;20059;-78
2023/07/19 12:39:54;;;;;;;6.30;2.42;;;27.70;99.90;;;;;;4914482;29;20048;-78
2023/07/19 12:42:21;;;;;;;5.30;2.60;;;27.70;99.90;;;;;;4900890;29;20076;-79
2023/07/19 12:44:48;;;;;;;3.85;2.13;;;27.70;99.90;;;;;;4899616;29;20049;-79
2023/07/19 12:47:15;;;;;;;7.63;2.78;;;27.70;99.90;;;;;;4899599;29;20048;-79
2023/07/19 12:49:42;;;;;;;5.20;2.80;;;27.70;99.90;;;;;;4900948;29;20500;-79
2023/07/19 12:52:11;;;;;;;5.95;2.50;;;27.80;99.90;;;;;;4901341;29;20077;-79
2023/07/19 12:54:38;;;;;;;4.87;2.63;;;27.80;99.90;;;;;;4902057;29;20603;-79
2023/07/19 12:57:05;;;;;;;5.88;2.58;;;27.90;99.90;;;;;;4902143;29;20394;-80
2023/07/19 12:59:32;;;;;;;5.07;2.55;;;27.90;99.90;;;;;;4901780;29;20048;-80
2023/07/19 13:02:00;;;;;;;6.65;2.55;;;28.00;99.90;;;;;;4899593;29;20049;-79
2023/07/19 13:04:27;;;;;;;5.90;2.20;;;28.10;99.90;;;;;;4915092;29;20144;-80
2023/07/19 13:06:54;;;;;;;5.63;2.25;;;28.20;99.90;;;;;;4901209;29;20132;-79
2023/07/19 13:09:21;;;;;;;3.25;2.20;;;28.40;99.90;;;;;;4900404;29;20056;-80
2023/07/19 13:11:48;;;;;;;3.90;2.33;;;28.40;99.90;;;;;;4901366;29;20535;-80
2023/07/19 13:14:15;;;;;;;7.63;2.58;;;28.50;99.90;;;;;;4901118;29;20052;-80
2023/07/19 13:16:42;;;;;;;7.15;2.58;;;28.60;99.90;;;;;;4902550;29;20049;-80
2023/07/19 13:19:09;;;;;;;4.78;2.75;;;28.60;99.90;;;;;;4902014;29;20059;-80
2023/07/19 13:21:36;;;;;;;8.85;2.67;;;28.70;99.90;;;;;;4898385;29;20097;-80
2023/07/19 13:24:03;;;;;;;5.60;2.53;;;28.80;99.90;;;;;;4898903;29;20049;-79
2023/07/19 13:26:30;;;;;;;4.55;2.15;;;28.80;99.90;;;;;;4901902;29;20048;-80
2023/07/19 13:28:57;;;;;;;5.78;2.60;;;28.80;99.90;;;;;;4901632;29;20049;-80
2023/07/19 13:31:24;;;;;;;8.32;2.72;;;28.90;99.90;;;;;;4897226;29;20048;-80
2023/07/19 13:33:51;;;;;;;8.32;2.67;;;28.90;99.90;;;;;;4897984;29;20136;-79
2023/07/19 13:36:18;;;;;;;5.03;2.78;;;28.90;99.90;;;;;;4901491;29;20490;-81
2023/07/19 13:38:48;;;;;;;5.35;2.45;;;28.90;99.90;;;;;;4900111;29;20088;-78
2023/07/19 13:41:15;;;;;;;6.45;2.35;;;28.80;99.90;;;;;;4898998;29;20056;-79
2023/07/19 13:43:43;;;;;;;3.63;2.15;;;28.80;99.90;;;;;;4898890;29;20112;-79
2023/07/19 13:46:10;;;;;;;7.93;2.63;;;28.70;99.90;;;;;;4895958;29;20134;-79
2023/07/19 13:48:37;;;;;;;5.13;2.60;;;28.70;99.90;;;;;;4899276;29;20048;-79
2023/07/19 13:51:04;;;;;;;3.17;2.42;;;28.60;99.90;;;;;;4897631;29;20424;-79
2023/07/19 13:53:31;;;;;;;6.32;2.60;;;28.50;99.90;;;;;;4899677;29;20052;-79
2023/07/19 13:55:58;;;;;;;5.00;2.72;;;28.50;99.90;;;;;;4900812;29;20045;-79
2023/07/19 13:58:24;;;;;;;5.93;2.40;;;28.50;99.90;;;;;;4895297;29;20041;-79
2023/07/19 14:00:51;;;;;;;6.15;2.90;;;28.50;99.90;;;;;;4899512;29;20057;-79
2023/07/19 14:03:18;;;;;;;7.03;3.33;;;28.40;99.90;;;;;;4899127;29;20045;-79
2023/07/19 14:05:45;;;;;;;5.32;2.78;;;28.40;99.90;;;;;;4898483;29;20056;-79
2023/07/19 14:08:12;;;;;;;7.43;2.50;;;28.30;99.90;;;;;;4896404;29;20053;-79
2023/07/19 14:10:40;;;;;;;7.10;2.95;;;28.40;99.90;;;;;;4898792;29;20056;-79
2023/07/19 14:13:07;;;;;;;7.90;2.72;;;28.40;99.90;;;;;;4897178;29;20583;-78
2023/07/19 14:15:34;;;;;;;5.38;2.83;;;28.40;99.90;;;;;;4897323;29;20053;-78
2023/07/19 14:18:01;;;;;;;4.28;2.92;;;28.40;99.90;;;;;;4898713;29;20104;-80
2023/07/19 14:20:29;;;;;;;4.25;2.80;;;28.50;99.90;;;;;;4897858;29;20130;-80
2023/07/19 14:22:55;;;;;;;4.25;3.08;;;28.50;99.90;;;;;;4894193;29;20045;-79
2023/07/19 14:25:22;;;;;;;6.10;2.80;;;28.60;99.90;;;;;;4898202;29;20052;-80
2023/07/19 14:27:49;;;;;;;8.40;2.90;;;28.60;99.90;;;;;;4900256;29;20056;-80
2023/07/19 14:30:16;;;;;;;5.10;3.42;;;28.70;99.90;;;;;;4903156;29;20045;-79
2023/07/19 14:32:43;;;;;;;3.97;2.78;;;28.70;99.90;;;;;;4903124;29;20054;-80
2023/07/19 14:35:13;;;;;;;5.53;2.83;;;28.70;99.90;;;;;;4903507;29;20049;-79
2023/07/19 14:37:41;;;;;;;4.68;2.92;;;28.70;99.90;;;;;;4903402;29;20315;-79
2023/07/19 14:40:08;;;;;;;7.85;3.50;;;28.80;99.90;;;;;;4902854;29;20081;-79
2023/07/19 14:42:35;;;;;;;4.25;2.70;;;28.80;99.90;;;;;;4902961;29;20556;-80
2023/07/19 14:45:02;;;;;;;6.20;3.00;;;28.80;99.90;;;;;;4902301;29;20077;-80
2023/07/19 14:47:28;;;;;;;4.25;2.53;;;28.80;99.90;;;;;;4903182;29;20044;-79
2023/07/19 14:49:55;;;;;;;4.78;3.28;;;28.90;99.90;;;;;;4901969;29;20067;-80
2023/07/19 14:52:22;;;;;;;4.43;2.83;;;28.80;99.90;;;;;;4902950;29;20075;-80
2023/07/19 14:54:50;;;;;;;5.97;3.35;;;28.80;99.90;;;;;;4901848;29;20048;-80
2023/07/19 14:57:17;;;;;;;6.57;3.05;;;28.90;99.90;;;;;;4899731;29;20502;-80
2023/07/19 14:59:44;;;;;;;7.15;3.55;;;28.90;99.90;;;;;;4901476;29;20055;-80
2023/07/19 15:02:15;;;;;;;9.10;3.00;;;29.00;99.90;;;;;;4900879;29;20080;-80
2023/07/19 15:04:45;;;;;;;4.95;2.63;;;29.00;99.90;;;;;;4902151;29;20485;-79
2023/07/19 15:07:13;;;;;;;4.07;3.00;;;29.10;99.90;;;;;;4902390;29;20048;-79
2023/07/19 15:09:39;;;;;;;6.13;3.35;;;29.10;99.90;;;;;;4901952;29;20049;-79
2023/07/19 15:12:07;;;;;;;6.90;3.50;;;29.10;99.90;;;;;;4902397;29;20053;-79
2023/07/19 15:14:36;;;;;;;5.90;3.28;;;29.10;99.90;;;;;;4902471;29;20056;-79
2023/07/19 15:17:03;;;;;;;4.78;3.00;;;29.20;99.90;;;;;;4900770;29;20200;-79
2023/07/19 15:19:31;;;;;;;5.32;3.15;;;29.20;99.90;;;;;;4900564;29;20060;-80
2023/07/19 15:21:58;;;;;;;6.22;3.30;;;29.10;99.90;;;;;;4901654;29;20109;-80
2023/07/19 15:24:25;;;;;;;5.43;3.13;;;29.10;99.90;;;;;;4902136;29;20077;-80
2023/07/19 15:26:52;;;;;;;4.80;2.85;;;29.10;99.90;;;;;;4902109;29;20049;-80
2023/07/19 15:29:19;;;;;;;4.90;3.10;;;29.10;99.90;;;;;;4902676;29;20119;-80
2023/07/19 15:31:46;;;;;;;6.15;3.47;;;29.10;99.90;;;;;;4901954;29;20052;-79
2023/07/19 15:34:14;;;;;;;4.55;3.05;;;29.20;99.90;;;;;;4901961;29;20108;-79
2023/07/19 15:36:40;;;;;;;4.53;3.15;;;29.20;99.90;;;;;;4905194;29;20073;-79
2023/07/19 15:39:07;;;;;;;6.05;3.03;;;29.10;99.90;;;;;;4905228;29;20100;-79
2023/07/19 15:41:34;;;;;;;5.90;3.03;;;29.20;99.90;;;;;;4905386;29;20111;-79
2023/07/19 15:44:01;;;;;;;7.60;3.33;;;29.20;99.90;;;;;;4904773;29;20516;-79
2023/07/19 15:46:27;;;;;;;4.95;3.22;;;29.20;99.90;;;;;;4905672;29;20053;-79
2023/07/19 15:48:54;;;;;;;5.75;2.70;;;29.20;99.90;;;;;;4920002;29;20052;-79
2023/07/19 15:51:21;;;;;;;5.57;2.88;;;29.20;99.90;;;;;;4905991;29;20055;-79
2023/07/19 15:53:48;;;;;;;4.10;3.05;;;29.10;99.90;;;;;;4904698;29;20096;-79
2023/07/19 15:56:15;;;;;;;6.97;3.60;;;29.10;99.90;;;;;;4905577;29;20098;-79
2023/07/19 15:58:42;;;;;;;4.85;3.28;;;29.10;99.90;;;;;;4906033;29;20057;-80
2023/07/19 16:01:09;;;;;;;5.43;3.08;;;29.10;99.90;;;;;;4904361;29;20049;-79
2023/07/19 16:03:37;;;;;;;5.15;3.30;;;29.10;99.90;;;;;;4904178;29;20064;-79
2023/07/19 16:06:07;;;;;;;5.03;3.17;;;29.00;99.90;;;;;;4905688;29;20049;-80
2023/07/19 16:08:35;;;;;;;6.45;3.35;;;29.00;99.90;;;;;;4906086;29;20048;-79
2023/07/19 16:11:02;;;;;;;6.82;3.20;;;29.00;99.90;;;;;;4905462;29;20112;-79
2023/07/19 16:13:30;;;;;;;3.80;2.88;;;28.90;99.90;;;;;;4902727;29;20048;-80
2023/07/19 16:15:57;;;;;;;6.22;3.40;;;28.90;99.90;;;;;;4910188;29;20045;-79
2023/07/19 16:18:24;;;;;;;4.55;3.08;;;28.80;99.90;;;;;;4915198;29;20496;-79
2023/07/19 16:20:50;;;;;;;7.82;2.97;;;28.80;99.90;;;;;;4900016;29;20060;-78
2023/07/19 16:23:17;;;;;;;6.43;3.45;;;28.70;99.90;;;;;;4900882;29;20048;-78
2023/07/19 16:25:44;;;;;;;5.57;3.55;;;28.50;99.90;;;;;;4916142;29;20083;-79
2023/07/19 16:28:11;;;;;;;4.18;3.00;;;28.50;99.90;;;;;;4904490;29;20465;-79
2023/07/19 16:30:37;;;;;;;5.93;3.38;;;28.50;99.90;;;;;;4901690;29;20108;-79
2023/07/19 16:33:04;;;;;;;4.05;2.63;;;28.50;99.90;;;;;;4903434;29;20516;-79
2023/07/19 16:35:31;;;;;;;6.25;3.60;;;28.50;99.90;;;;;;4918191;23;20447;-75
2023/07/19 16:37:58;;;;;;;6.60;2.95;;;28.50;99.90;;;;;;4905072;29;20100;-75
2023/07/19 16:40:25;;;;;;;8.32;3.33;;;28.40;99.90;;;;;;4908366;29;20124;-76
2023/07/19 16:42:52;;;;;;;6.55;3.30;;;28.30;99.90;;;;;;4915032;29;20131;-75
2023/07/19 16:45:18;;;;;;;8.27;3.33;;;28.30;99.90;;;;;;4906268;29;20044;-75
2023/07/19 16:47:45;;;;;;;4.43;2.97;;;28.30;99.90;;;;;;4898314;29;20053;-76
2023/07/19 16:50:12;;;;;;;4.28;3.10;;;28.20;99.90;;;;;;4897837;29;20057;-75
2023/07/19 16:52:40;;;;;;;3.53;3.10;;;28.20;99.90;;;;;;4897988;29;20469;-76
2023/07/19 16:55:09;;;;;;;6.50;3.15;;;28.20;99.90;;;;;;4897591;29;20508;-76
2023/07/19 16:57:37;;;;;;;8.55;3.53;;;28.20;99.90;;;;;;4897895;29;20057;-76
2023/07/19 17:00:06;;;;;;;4.35;3.15;;;28.20;99.90;;;;;;4912413;29;20060;-76
2023/07/19 17:02:43;;;;;;;4.13;3.15;;;28.10;99.90;;;;;;4896006;29;20417;-76
2023/07/19 17:05:10;;;;;;;4.85;2.90;;;28.10;99.90;;;;;;4897447;29;20547;-76
2023/07/19 17:07:37;;;;;;;5.68;2.78;;;28.10;99.90;;;;;;4897922;29;20104;-75
2023/07/19 17:10:04;;;;;;;8.55;2.72;;;28.10;99.90;;;;;;4897634;29;20055;-75
2023/07/19 17:12:31;;;;;;;4.97;2.92;;;28.00;99.90;;;;;;4904983;29;20458;-76
2023/07/19 17:14:58;;;;;;;7.60;3.05;;;28.00;99.90;;;;;;4911886;29;20116;-76
2023/07/19 17:17:25;;;;;;;4.50;2.95;;;27.90;99.90;;;;;;4898925;29;20060;-76
2023/07/19 17:19:52;;;;;;;5.57;3.38;;;27.90;99.90;;;;;;4909006;29;20056;-75
2023/07/19 17:22:18;;;;;;;7.85;3.60;;;27.90;99.90;;;;;;4896213;29;20099;-76
2023/07/19 17:24:45;;;;;;;5.32;2.83;;;27.90;99.90;;;;;;4897023;29;20091;-76
2023/07/19 17:27:12;;;;;;;5.40;3.72;;;27.90;99.90;;;;;;4897498;29;20203;-76
2023/07/19 17:29:39;;;;;;;4.95;3.20;;;27.80;99.90;;;;;;4896045;29;20127;-76
2023/07/19 17:32:06;;;;;;;4.70;2.75;;;27.80;99.90;;;;;;4911769;29;20115;-76
2023/07/19 17:34:33;;;;;;;4.28;2.63;;;27.80;99.90;;;;;;4896793;29;20083;-75
2023/07/19 17:36:59;;;;;;;5.70;2.60;;;27.80;99.90;;;;;;4897151;29;20078;-76
2023/07/19 17:39:26;;;;;;;5.40;3.20;;;27.70;99.90;;;;;;4897368;29;20096;-76
2023/07/19 17:41:53;;;;;;;4.57;2.58;;;27.80;99.90;;;;;;4896963;29;20055;-76
2023/07/19 17:44:20;;;;;;;3.97;2.88;;;27.80;99.90;;;;;;4896785;29;20053;-75
2023/07/19 17:46:48;;;;;;;8.63;2.85;;;27.70;99.90;;;;;;4911538;29;20465;-75
2023/07/19 17:49:15;;;;;;;4.60;3.05;;;27.70;99.90;;;;;;4896402;29;20048;-76
2023/07/19 17:51:41;;;;;;;3.97;2.60;;;27.70;99.90;;;;;;4911351;29;20100;-76
2023/07/19 17:54:08;;;;;;;7.95;3.03;;;27.60;99.90;;;;;;4896701;29;20527;-75
2023/07/19 17:56:35;;;;;;;7.93;3.20;;;27.60;99.90;;;;;;4896166;29;20048;-76
2023/07/19 17:59:02;;;;;;;4.07;2.60;;;27.60;99.90;;;;;;4896924;29;20052;-75
2023/07/19 18:01:30;;;;;;;3.90;2.05;;;27.60;99.90;;;;;;4896891;29;20400;-76
2023/07/19 18:03:57;;;;;;;4.43;2.38;;;27.60;99.90;;;;;;4896437;29;20401;-76
2023/07/19 18:06:24;;;;;;;4.75;2.13;;;27.50;99.90;;;;;;4892826;29;20048;-76
2023/07/19 18:08:51;;;;;;;4.45;1.90;;;27.50;99.90;;;;;;4896788;29;20048;-76
2023/07/19 18:11:17;;;;;;;5.15;1.92;;;27.40;99.90;;;;;;4893183;29;20052;-76
2023/07/19 18:13:45;;;;;;;5.95;2.00;;;27.40;99.90;;;;;;4896492;29;20048;-76
2023/07/19 18:16:12;;;;;;;2.33;1.98;;;27.30;99.90;;;;;;4910517;29;20076;-76
2023/07/19 18:18:39;;;;;;;3.42;2.00;;;27.30;99.90;;;;;;4895356;29;20429;-76
2023/07/19 18:21:05;;;;;;;6.05;2.03;;;27.20;99.90;;;;;;4896559;29;20584;-75
2023/07/19 18:23:32;;;;;;;3.97;2.00;;;27.20;99.90;;;;;;4896497;29;20081;-76
2023/07/19 18:25:59;;;;;;;6.20;2.10;;;27.10;99.90;;;;;;4896209;29;20397;-75
2023/07/19 18:28:26;;;;;;;3.97;1.73;;;27.10;99.90;;;;;;4896367;29;20078;-76
2023/07/19 18:30:52;;;;;;;3.33;2.00;;;27.00;99.90;;;;;;4896623;29;20476;-76
2023/07/19 18:33:19;;;;;;;4.18;1.73;;;26.90;99.90;;;;;;4896287;29;20080;-76
2023/07/19 18:35:46;;;;;;;2.45;1.55;;;26.80;99.90;;;;;;4895926;29;20111;-75
2023/07/19 18:38:13;;;;;;;3.03;1.90;;;26.80;99.90;;;;;;4896174;29;20056;-75
2023/07/19 18:40:40;;;;;;;3.78;1.70;;;26.80;99.90;;;;;;4896227;29;20049;-75
2023/07/19 18:43:06;;;;;;;3.55;1.75;;;26.70;99.90;;;;;;4896091;29;20473;-76
2023/07/19 18:45:33;;;;;;;6.10;2.00;;;26.70;99.90;;;;;;4891546;29;20053;-75
2023/07/19 18:48:00;;;;;;;3.60;1.92;;;26.70;99.90;;;;;;4893852;29;20141;-76
2023/07/19 18:50:27;;;;;;;3.70;1.85;;;26.70;99.90;;;;;;4896374;29;20160;-75
2023/07/19 18:52:53;;;;;;;5.97;1.92;;;26.60;99.90;;;;;;4896125;29;20056;-76
2023/07/19 18:55:20;;;;;;;4.82;1.77;;;26.60;99.90;;;;;;4895753;29;20100;-76
2023/07/19 18:57:47;;;;;;;5.70;1.52;;;26.50;99.90;;;;;;4894971;29;20436;-76
2023/07/19 19:00:14;;;;;;;5.20;1.73;;;26.50;99.90;;;;;;4895999;29;20072;-75
2023/07/19 19:02:41;;;;;;;6.18;1.77;;;26.50;99.90;;;;;;4896215;29;20048;-76
2023/07/19 19:05:08;;;;;;;3.88;1.80;;;26.40;99.90;;;;;;4895561;29;20500;-75
2023/07/19 19:07:35;;;;;;;3.08;1.63;;;26.40;99.90;;;;;;4910804;29;20084;-75
2023/07/19 19:10:01;;;;;;;2.97;1.58;;;26.30;99.90;;;;;;4899810;29;20044;-75
2023/07/19 19:12:28;;;;;;;7.20;2.08;;;26.30;99.90;;;;;;4899781;29;20041;-76
2023/07/19 19:14:57;;;;;;;5.43;1.85;;;26.30;99.90;;;;;;4899463;29;20617;-75
2023/07/19 19:17:23;;;;;;;5.50;1.63;;;26.20;99.90;;;;;;4899705;29;20048;-75
2023/07/19 19:19:50;;;;;;;4.03;1.65;;;26.10;99.90;;;;;;4898668;29;20505;-75
2023/07/19 19:22:17;;;;;;;4.07;1.83;;;26.10;99.90;;;;;;4898799;29;20045;-76
2023/07/19 19:24:45;;;;;;;6.07;2.10;;;26.10;99.90;;;;;;4899109;29;20528;-76
2023/07/19 19:27:11;;;;;;;7.15;2.03;;;26.10;99.90;;;;;;4898695;29;20055;-76
2023/07/19 19:29:38;;;;;;;5.43;1.88;;;26.00;99.90;;;;;;4899483;29;20049;-75
2023/07/19 19:32:05;;;;;;;5.57;2.05;;;26.00;99.90;;;;;;4897569;29;20100;-75
2023/07/19 19:34:32;;;;;;;3.53;1.80;;;26.00;99.90;;;;;;4899166;29;20056;-76
2023/07/19 19:36:59;;;;;;;5.57;1.67;;;25.90;99.90;;;;;;4899423;29;20108;-75